createdAt,value
2022-07-25T00:01:12.818Z,100807.88
2022-07-25T00:03:41.477Z,100816.28
2022-07-25T00:06:13.374Z,100812.19
2022-07-25T00:08:45.491Z,100807.38
2022-07-25T00:11:12.813Z,100807.75
2022-07-25T00:13:40.206Z,100809.13
2022-07-25T00:16:07.933Z,100807.31
2022-07-25T00:18:35.423Z,100800.94
2022-07-25T00:21:03.010Z,100805.84
2022-07-25T00:23:30.383Z,100807.97
2022-07-25T00:25:57.876Z,100804.22
2022-07-25T00:28:25.530Z,100797.31
2022-07-25T00:30:53.069Z,100797.22
2022-07-25T00:33:20.626Z,100799.91
2022-07-25T00:35:48.004Z,100791.00
2022-07-25T00:38:15.444Z,100799.91
2022-07-25T00:40:42.843Z,100790.16
2022-07-25T00:43:10.197Z,100796.56
2022-07-25T00:45:40.147Z,100790.84
2022-07-25T00:48:08.263Z,100789.72
2022-07-25T00:50:36.231Z,100784.56
2022-07-25T00:53:04.481Z,100785.56
2022-07-25T00:55:33.635Z,100788.72
2022-07-25T00:58:00.943Z,100774.81
2022-07-25T01:00:28.411Z,100780.66
2022-07-25T01:02:56.052Z,100775.81
2022-07-25T01:05:23.473Z,100765.84
2022-07-25T01:07:51.758Z,100767.09
2022-07-25T01:10:19.135Z,100771.22
2022-07-25T01:12:53.444Z,100775.47
2022-07-25T01:15:23.123Z,100780.28
2022-07-25T01:17:51.168Z,100772.91
2022-07-25T01:20:19.986Z,100771.44
2022-07-25T01:22:48.466Z,100774.03
2022-07-25T01:25:16.227Z,100773.69
2022-07-25T01:27:44.402Z,100778.41
2022-07-25T01:30:14.127Z,100775.31
2022-07-25T01:32:42.663Z,100769.78
2022-07-25T01:35:10.907Z,100771.28
2022-07-25T01:37:38.467Z,100770.88
2022-07-25T01:40:07.091Z,100771.41
2022-07-25T01:42:34.456Z,100772.34
2022-07-25T01:45:02.657Z,100780.56
2022-07-25T01:47:30.231Z,100771.97
2022-07-25T01:49:57.670Z,100758.66
2022-07-25T01:52:25.012Z,100766.31
2022-07-25T01:54:52.376Z,100760.78
2022-07-25T01:57:19.858Z,100764.38
2022-07-25T01:59:50.322Z,100758.47
2022-07-25T02:02:17.678Z,100749.50
2022-07-25T02:04:45.258Z,100755.53
2022-07-25T02:07:12.686Z,100759.69
2022-07-25T02:09:41.279Z,100752.06
2022-07-25T02:12:11.363Z,100755.34
2022-07-25T02:14:38.876Z,100760.00
2022-07-25T02:17:06.531Z,100758.22
2022-07-25T02:19:34.381Z,100756.53
2022-07-25T02:22:01.865Z,100756.00
2022-07-25T02:24:31.249Z,100757.25
2022-07-25T02:26:58.591Z,100755.88
2022-07-25T02:29:26.140Z,100750.75
2022-07-25T02:31:53.519Z,100750.34
2022-07-25T02:34:21.025Z,100750.25
2022-07-25T02:36:48.411Z,100748.63
2022-07-25T02:39:15.797Z,100749.53
2022-07-25T02:41:44.090Z,100762.88
2022-07-25T02:44:11.449Z,100753.25
2022-07-25T02:46:38.870Z,100755.66
2022-07-25T02:49:06.289Z,100752.34
2022-07-25T02:51:33.691Z,100755.34
2022-07-25T02:54:01.090Z,100759.94
2022-07-25T02:56:30.271Z,100756.81
2022-07-25T02:58:59.765Z,100760.56
2022-07-25T03:01:27.276Z,100767.03
2022-07-25T03:03:54.818Z,100763.72
2022-07-25T03:06:22.271Z,100761.09
2022-07-25T03:08:49.778Z,100756.47
2022-07-25T03:11:17.280Z,100756.81
2022-07-25T03:13:44.696Z,100760.84
2022-07-25T03:16:15.168Z,100760.03
2022-07-25T03:18:42.560Z,100756.81
2022-07-25T03:21:09.978Z,100766.50
2022-07-25T03:23:37.372Z,100767.00
2022-07-25T03:26:05.172Z,100763.44
2022-07-25T03:28:32.646Z,100763.69
2022-07-25T03:31:00.544Z,100762.91
2022-07-25T03:33:27.967Z,100765.97
2022-07-25T03:35:56.459Z,100781.28
2022-07-25T03:38:24.739Z,100773.38
2022-07-25T03:40:52.097Z,100765.88
2022-07-25T03:43:19.456Z,100774.41
2022-07-25T03:45:46.912Z,100769.13
2022-07-25T03:48:14.367Z,100777.59
2022-07-25T03:50:41.696Z,100777.03
2022-07-25T03:53:10.333Z,100775.25
2022-07-25T03:55:39.586Z,100779.69
2022-07-25T03:58:07.230Z,100770.41
2022-07-25T04:00:34.565Z,100781.72
2022-07-25T04:03:02.241Z,100772.56
2022-07-25T04:05:30.171Z,100782.75
2022-07-25T04:07:57.587Z,100775.03
2022-07-25T04:10:24.978Z,100777.16
2022-07-25T04:12:52.308Z,100781.56
2022-07-25T04:15:19.884Z,100776.31
2022-07-25T04:17:47.170Z,100773.81
2022-07-25T04:20:14.548Z,100774.28
2022-07-25T04:22:46.939Z,100778.66
2022-07-25T04:25:14.604Z,100770.78
2022-07-25T04:27:41.943Z,100780.22
2022-07-25T04:30:10.571Z,100776.09
2022-07-25T04:32:37.995Z,100772.00
2022-07-25T04:35:05.883Z,100775.47
2022-07-25T04:37:33.367Z,100778.19
2022-07-25T04:40:00.748Z,100774.53
2022-07-25T04:42:28.100Z,100774.94
2022-07-25T04:44:55.416Z,100771.13
2022-07-25T04:47:22.965Z,100779.75
2022-07-25T04:49:51.399Z,100779.59
2022-07-25T04:52:18.769Z,100770.13
2022-07-25T04:54:46.266Z,100782.41
2022-07-25T04:57:13.703Z,100771.63
2022-07-25T04:59:41.092Z,100779.00
2022-07-25T05:02:08.590Z,100777.59
2022-07-25T05:04:36.120Z,100768.25
2022-07-25T05:07:12.256Z,100765.53
2022-07-25T05:09:39.990Z,100759.31
2022-07-25T05:12:07.666Z,100759.63
2022-07-25T05:14:35.653Z,100761.09
2022-07-25T05:17:03.047Z,100759.41
2022-07-25T05:19:30.732Z,100767.84
2022-07-25T05:21:58.050Z,100775.44
2022-07-25T05:24:25.520Z,100769.03
2022-07-25T05:26:52.886Z,100770.19
2022-07-25T05:29:23.460Z,100774.81
2022-07-25T05:31:50.879Z,100775.41
2022-07-25T05:34:18.384Z,100770.16
2022-07-25T05:36:47.432Z,100776.41
2022-07-25T05:39:15.092Z,100777.75
2022-07-25T05:41:42.468Z,100780.19
2022-07-25T05:44:10.080Z,100777.22
2022-07-25T05:46:37.652Z,100774.75
2022-07-25T05:49:05.203Z,100780.84
2022-07-25T05:51:32.595Z,100772.44
2022-07-25T05:53:59.990Z,100781.09
2022-07-25T05:56:27.654Z,100773.47
2022-07-25T05:58:54.993Z,100776.59
2022-07-25T06:01:22.512Z,100770.66
2022-07-25T06:03:50.056Z,100768.59
2022-07-25T06:06:17.376Z,100767.22
2022-07-25T06:08:44.663Z,100770.50
2022-07-25T06:11:12.746Z,100766.66
2022-07-25T06:13:40.275Z,100766.63
2022-07-25T06:16:08.721Z,100764.25
2022-07-25T06:18:36.193Z,100761.72
2022-07-25T06:21:03.817Z,100767.72
2022-07-25T06:23:31.436Z,100757.44
2022-07-25T06:25:58.843Z,100766.53
2022-07-25T06:28:26.189Z,100763.13
2022-07-25T06:30:53.723Z,100766.56
2022-07-25T06:33:21.173Z,100763.28
2022-07-25T06:35:49.040Z,100763.31
2022-07-25T06:38:16.406Z,100767.53
2022-07-25T06:40:43.739Z,100758.81
2022-07-25T06:43:11.163Z,100767.97
2022-07-25T06:45:38.558Z,100767.53
2022-07-25T06:48:06.360Z,100759.63
2022-07-25T06:50:33.742Z,100755.25
2022-07-25T06:53:00.996Z,100758.22
2022-07-25T06:55:28.379Z,100749.63
2022-07-25T06:57:55.933Z,100750.84
2022-07-25T07:00:23.396Z,100751.31
2022-07-25T07:02:56.905Z,100761.03
2022-07-25T07:05:27.325Z,100750.09
2022-07-25T07:07:54.698Z,100755.06
2022-07-25T07:10:22.592Z,100749.72
2022-07-25T07:12:50.803Z,100746.91
2022-07-25T07:15:18.169Z,100750.31
2022-07-25T07:17:48.538Z,100747.75
2022-07-25T07:20:15.890Z,100750.66
2022-07-25T07:22:45.179Z,100744.66
2022-07-25T07:25:17.289Z,100751.97
2022-07-25T07:27:48.023Z,100746.47
2022-07-25T07:30:16.778Z,100742.72
2022-07-25T07:32:47.489Z,100747.75
2022-07-25T07:35:16.606Z,100752.00
2022-07-25T07:37:46.812Z,100750.13
2022-07-25T07:40:16.823Z,100739.84
2022-07-25T07:42:49.763Z,100744.22
2022-07-25T07:45:19.282Z,100751.16
2022-07-25T07:47:48.785Z,100743.28
2022-07-25T07:50:19.026Z,100745.13
2022-07-25T07:52:46.643Z,100733.31
2022-07-25T07:55:33.739Z,100737.44
2022-07-25T07:58:01.870Z,100736.19
2022-07-25T08:00:34.993Z,100739.00
2022-07-25T08:03:03.326Z,100743.63
2022-07-25T08:05:33.682Z,100740.88
2022-07-25T08:08:01.454Z,100736.63
2022-07-25T08:10:31.151Z,100736.63
2022-07-25T08:12:59.436Z,100732.97
2022-07-25T08:15:27.213Z,100736.41
2022-07-25T08:17:54.816Z,100733.84
2022-07-25T08:20:37.954Z,100738.78
2022-07-25T08:23:07.103Z,100738.69
2022-07-25T08:25:35.467Z,100735.97
2022-07-25T08:28:03.631Z,100740.69
2022-07-25T08:30:33.436Z,100735.59
2022-07-25T08:33:03.623Z,100737.66
2022-07-25T08:35:32.151Z,100728.31
2022-07-25T08:38:01.111Z,100733.41
2022-07-25T08:40:32.715Z,100725.66
2022-07-25T08:43:00.916Z,100727.94
2022-07-25T08:45:29.053Z,100722.91
2022-07-25T08:47:56.896Z,100724.59
2022-07-25T08:50:26.586Z,100720.00
2022-07-25T08:53:10.342Z,100721.91
2022-07-25T08:55:46.844Z,100720.09
2022-07-25T08:58:16.095Z,100713.63
2022-07-25T09:00:43.722Z,100709.00
2022-07-25T09:03:12.668Z,100719.19
2022-07-25T09:05:40.780Z,100706.38
2022-07-25T09:08:17.505Z,100715.56
2022-07-25T09:10:52.989Z,100707.03
2022-07-25T09:13:22.191Z,100698.00
2022-07-25T09:15:56.823Z,100706.94
2022-07-25T09:18:26.742Z,100711.88
2022-07-25T09:20:58.690Z,100706.22
2022-07-25T09:23:38.579Z,100707.69
2022-07-25T09:26:11.386Z,100702.81
2022-07-25T09:28:44.049Z,100704.06
2022-07-25T09:31:13.485Z,100698.59
2022-07-25T09:34:00.399Z,100701.03
2022-07-25T09:36:27.819Z,100693.06
2022-07-25T09:39:05.127Z,100697.59
2022-07-25T09:41:37.548Z,100694.63
2022-07-25T09:44:16.027Z,100689.50
2022-07-25T09:46:45.172Z,100693.34
2022-07-25T09:49:15.526Z,100690.34
2022-07-25T09:51:43.132Z,100683.97
2022-07-25T09:54:10.747Z,100689.72
2022-07-25T09:56:38.089Z,100682.63
2022-07-25T09:59:06.764Z,100678.63
2022-07-25T10:01:42.723Z,100677.25
2022-07-25T10:04:17.745Z,100671.72
2022-07-25T10:07:07.614Z,100670.78
2022-07-25T10:09:48.738Z,100671.75
2022-07-25T10:12:21.064Z,100668.25
2022-07-25T10:15:12.167Z,100660.06
2022-07-25T10:17:41.131Z,100664.63
2022-07-25T10:20:10.492Z,100655.94
2022-07-25T10:22:59.796Z,100656.88
2022-07-25T10:25:27.541Z,100653.09
2022-07-25T10:28:03.694Z,100638.13
2022-07-25T10:30:36.493Z,100643.97
2022-07-25T10:33:11.706Z,100639.72
2022-07-25T10:35:39.386Z,100637.69
2022-07-25T10:38:06.771Z,100642.06
2022-07-25T10:40:44.890Z,100634.06
2022-07-25T10:43:14.902Z,100634.03
2022-07-25T10:45:48.373Z,100625.63
2022-07-25T10:48:29.046Z,100631.56
2022-07-25T10:51:11.827Z,100625.38
2022-07-25T10:53:45.334Z,100622.81
2022-07-25T10:56:16.529Z,100621.00
2022-07-25T10:58:53.982Z,100617.63
2022-07-25T11:01:22.721Z,100607.56
2022-07-25T11:03:51.164Z,100592.56
2022-07-25T11:06:39.370Z,100601.34
2022-07-25T11:09:20.698Z,100600.59
2022-07-25T11:11:52.619Z,100596.69
2022-07-25T11:14:22.649Z,100592.06
2022-07-25T11:16:52.577Z,100591.28
2022-07-25T11:19:27.699Z,100575.50
2022-07-25T11:22:13.393Z,100580.41
2022-07-25T11:24:44.161Z,100581.19
2022-07-25T11:27:33.686Z,100567.22
2022-07-25T11:30:15.303Z,100574.44
2022-07-25T11:32:49.497Z,100569.06
2022-07-25T11:35:24.499Z,100565.13
2022-07-25T11:37:53.345Z,100563.59
2022-07-25T11:40:22.651Z,100571.31
2022-07-25T11:42:52.650Z,100565.00
2022-07-25T11:45:27.296Z,100554.25
2022-07-25T11:48:06.557Z,100553.63
2022-07-25T11:50:36.516Z,100546.66
2022-07-25T11:53:09.542Z,100544.53
2022-07-25T11:55:40.822Z,100539.34
2022-07-25T11:58:15.609Z,100542.91
2022-07-25T12:00:47.817Z,100542.66
2022-07-25T12:03:20.201Z,100543.91
2022-07-25T12:05:49.740Z,100537.72
2022-07-25T12:08:23.127Z,100531.53
2022-07-25T12:10:53.376Z,100517.78
2022-07-25T12:13:25.176Z,100522.69
2022-07-25T12:15:53.371Z,100520.28
2022-07-25T12:18:20.905Z,100519.00
2022-07-25T12:20:48.260Z,100524.75
2022-07-25T12:23:15.773Z,100509.25
2022-07-25T12:25:45.856Z,100520.63
2022-07-25T12:28:14.128Z,100500.47
2022-07-25T12:30:43.587Z,100502.00
2022-07-25T12:33:11.872Z,100499.66
2022-07-25T12:35:57.738Z,100497.88
2022-07-25T12:38:25.355Z,100488.09
2022-07-25T12:40:52.930Z,100491.72
2022-07-25T12:43:20.317Z,100489.34
2022-07-25T12:45:48.026Z,100484.00
2022-07-25T12:48:15.842Z,100472.16
2022-07-25T12:50:44.440Z,100468.00
2022-07-25T12:53:13.415Z,100463.91
2022-07-25T12:55:41.450Z,100461.03
2022-07-25T12:58:09.196Z,100460.78
2022-07-25T13:00:36.606Z,100454.84
2022-07-25T13:03:04.377Z,100453.03
2022-07-25T13:05:34.469Z,100451.94
2022-07-25T13:08:05.149Z,100441.38
2022-07-25T13:10:32.515Z,100434.38
2022-07-25T13:12:59.928Z,100434.38
2022-07-25T13:15:28.264Z,100430.47
2022-07-25T13:17:56.305Z,100439.97
2022-07-25T13:20:23.736Z,100432.84
2022-07-25T13:22:51.410Z,100431.34
2022-07-25T13:25:19.030Z,100423.00
2022-07-25T13:27:48.493Z,100418.16
2022-07-25T13:30:15.906Z,100407.53
2022-07-25T13:32:43.620Z,100407.25
2022-07-25T13:35:11.097Z,100400.72
2022-07-25T13:37:38.453Z,100396.97
2022-07-25T13:40:06.546Z,100398.94
2022-07-25T13:42:33.990Z,100392.53
2022-07-25T13:45:01.480Z,100385.94
2022-07-25T13:47:30.622Z,100383.63
2022-07-25T13:49:58.121Z,100385.34
2022-07-25T13:52:25.489Z,100388.94
2022-07-25T13:54:52.863Z,100386.03
2022-07-25T13:57:20.272Z,100378.81
2022-07-25T13:59:47.651Z,100381.72
2022-07-25T14:02:15.021Z,100372.75
2022-07-25T14:04:42.399Z,100382.63
2022-07-25T14:07:09.981Z,100381.34
2022-07-25T14:09:37.923Z,100371.31
2022-07-25T14:12:06.545Z,100377.53
2022-07-25T14:14:33.825Z,100386.00
2022-07-25T14:17:01.295Z,100381.63
2022-07-25T14:19:28.642Z,100370.50
2022-07-25T14:21:56.029Z,100378.53
2022-07-25T14:24:23.377Z,100369.75
2022-07-25T14:26:50.737Z,100371.00
2022-07-25T14:29:19.119Z,100370.78
2022-07-25T14:31:46.618Z,100371.81
2022-07-25T14:34:15.693Z,100358.88
2022-07-25T14:36:44.628Z,100353.97
2022-07-25T14:39:12.043Z,100355.22
2022-07-25T14:41:39.730Z,100356.28
2022-07-25T14:44:07.195Z,100349.84
2022-07-25T14:46:35.099Z,100338.19
2022-07-25T14:49:02.825Z,100338.66
2022-07-25T14:51:30.577Z,100341.94
2022-07-25T14:53:57.917Z,100339.84
2022-07-25T14:56:25.361Z,100330.31
2022-07-25T14:58:52.741Z,100330.63
2022-07-25T15:01:21.161Z,100333.00
2022-07-25T15:03:51.190Z,100334.03
2022-07-25T15:06:18.948Z,100328.03
2022-07-25T15:08:46.424Z,100329.09
2022-07-25T15:11:13.765Z,100327.78
2022-07-25T15:13:41.136Z,100324.41
2022-07-25T15:16:08.582Z,100322.09
2022-07-25T15:18:52.318Z,100322.56
2022-07-25T15:21:24.147Z,100325.69
2022-07-25T15:23:53.871Z,100330.59
2022-07-25T15:26:21.209Z,100333.13
2022-07-25T15:28:49.018Z,100329.75
2022-07-25T15:31:17.257Z,100320.84
2022-07-25T15:33:44.611Z,100316.47
2022-07-25T15:36:12.842Z,100316.50
2022-07-25T15:38:40.239Z,100308.91
2022-07-25T15:41:10.661Z,100307.66
2022-07-25T15:43:39.068Z,100297.84
2022-07-25T15:46:10.467Z,100306.38
2022-07-25T15:48:38.203Z,100302.44
2022-07-25T15:51:06.179Z,100302.19
2022-07-25T15:53:33.592Z,100300.47
2022-07-25T15:56:00.972Z,100283.75
2022-07-25T15:58:28.396Z,100277.03
2022-07-25T16:00:55.787Z,100274.19
2022-07-25T16:03:24.060Z,100270.34
2022-07-25T16:05:51.514Z,100261.88
2022-07-25T16:08:18.891Z,100261.13
2022-07-25T16:10:46.268Z,100264.97
2022-07-25T16:13:13.806Z,100249.81
2022-07-25T16:15:41.654Z,100249.75
2022-07-25T16:18:09.123Z,100245.63
2022-07-25T16:20:36.645Z,100239.94
2022-07-25T16:23:04.002Z,100248.69
2022-07-25T16:25:31.380Z,100242.25
2022-07-25T16:27:59.753Z,100241.25
2022-07-25T16:30:27.854Z,100237.34
2022-07-25T16:32:55.516Z,100232.69
2022-07-25T16:35:23.280Z,100220.34
2022-07-25T16:37:51.062Z,100231.16
2022-07-25T16:40:18.567Z,100232.94
2022-07-25T16:42:46.747Z,100220.34
2022-07-25T16:45:14.267Z,100221.34
2022-07-25T16:47:44.379Z,100229.84
2022-07-25T16:50:11.746Z,100226.00
2022-07-25T16:52:39.355Z,100221.63
2022-07-25T16:55:08.951Z,100222.13
2022-07-25T16:57:38.054Z,100221.63
2022-07-25T17:00:08.324Z,100220.03
2022-07-25T17:02:35.704Z,100213.81
2022-07-25T17:05:03.659Z,100213.00
2022-07-25T17:07:31.968Z,100215.31
2022-07-25T17:09:59.352Z,100214.06
2022-07-25T17:12:26.691Z,100201.44
2022-07-25T17:14:54.032Z,100207.38
2022-07-25T17:17:21.445Z,100199.16
2022-07-25T17:19:48.907Z,100206.59
2022-07-25T17:22:16.274Z,100194.72
2022-07-25T17:24:43.598Z,100187.50
2022-07-25T17:27:10.949Z,100195.97
2022-07-25T17:29:38.372Z,100195.66
2022-07-25T17:32:06.925Z,100184.78
2022-07-25T17:34:34.529Z,100179.69
2022-07-25T17:37:02.955Z,100179.63
2022-07-25T17:39:30.968Z,100179.88
2022-07-25T17:41:58.620Z,100170.34
2022-07-25T17:44:26.595Z,100173.91
2022-07-25T17:46:54.379Z,100170.56
2022-07-25T17:49:21.986Z,100175.69
2022-07-25T17:51:49.537Z,100161.00
2022-07-25T17:54:16.996Z,100168.19
2022-07-25T17:56:45.452Z,100168.16
2022-07-25T17:59:13.654Z,100159.66
2022-07-25T18:01:41.147Z,100167.84
2022-07-25T18:04:09.185Z,100164.41
2022-07-25T18:06:36.957Z,100153.25
2022-07-25T18:09:04.534Z,100160.16
2022-07-25T18:11:32.042Z,100164.69
2022-07-25T18:13:59.590Z,100168.44
2022-07-25T18:16:27.131Z,100156.72
2022-07-25T18:18:54.717Z,100153.22
2022-07-25T18:21:24.885Z,100155.91
2022-07-25T18:23:52.584Z,100157.97
2022-07-25T18:26:21.841Z,100162.63
2022-07-25T18:28:49.414Z,100169.56
2022-07-25T18:31:19.530Z,100177.41
2022-07-25T18:33:46.894Z,100189.72
2022-07-25T18:36:14.287Z,100192.84
2022-07-25T18:38:42.639Z,100201.66
2022-07-25T18:41:28.794Z,100201.09
2022-07-25T18:43:57.531Z,100220.06
2022-07-25T18:46:25.066Z,100230.31
2022-07-25T18:48:52.834Z,100222.47
2022-07-25T18:51:22.361Z,100234.63
2022-07-25T18:53:51.075Z,100234.63
2022-07-25T18:56:18.476Z,100225.97
2022-07-25T18:58:46.479Z,100232.38
2022-07-25T19:01:14.053Z,100242.25
2022-07-25T19:03:41.502Z,100241.66
2022-07-25T19:06:09.834Z,100241.09
2022-07-25T19:08:37.925Z,100236.94
2022-07-25T19:11:06.275Z,100237.31
2022-07-25T19:13:51.134Z,100225.44
2022-07-25T19:16:19.639Z,100235.19
2022-07-25T19:18:47.469Z,100249.19
2022-07-25T19:21:15.365Z,100250.38
2022-07-25T19:23:50.783Z,100246.28
2022-07-25T19:26:20.111Z,100246.13
2022-07-25T19:28:47.545Z,100250.72
2022-07-25T19:31:15.240Z,100260.06
2022-07-25T19:33:43.009Z,100260.06
2022-07-25T19:36:10.615Z,100265.50
2022-07-25T19:38:37.935Z,100266.41
2022-07-25T19:41:09.059Z,100262.97
2022-07-25T19:43:36.570Z,100264.31
2022-07-25T19:46:04.161Z,100264.66
2022-07-25T19:48:33.906Z,100270.09
2022-07-25T19:51:01.547Z,100265.59
2022-07-25T19:53:29.050Z,100258.81
2022-07-25T19:55:56.476Z,100255.91
2022-07-25T19:58:23.863Z,100259.78
2022-07-25T20:00:51.164Z,100260.28
2022-07-25T20:03:23.610Z,100266.91
2022-07-25T20:05:52.023Z,100257.56
2022-07-25T20:08:19.426Z,100270.63
2022-07-25T20:10:48.247Z,100275.66
2022-07-25T20:13:15.796Z,100278.13
2022-07-25T20:15:43.162Z,100277.56
2022-07-25T20:18:10.606Z,100282.91
2022-07-25T20:20:38.122Z,100290.69
2022-07-25T20:23:05.517Z,100303.06
2022-07-25T20:25:33.069Z,100297.34
2022-07-25T20:28:00.450Z,100302.38
2022-07-25T20:30:34.837Z,100292.06
2022-07-25T20:33:08.100Z,100291.94
2022-07-25T20:35:38.393Z,100291.56
2022-07-25T20:38:08.992Z,100310.72
2022-07-25T20:40:48.243Z,100308.56
2022-07-25T20:43:18.416Z,100314.00
2022-07-25T20:45:45.831Z,100318.56
2022-07-25T20:48:15.723Z,100317.50
2022-07-25T20:50:44.303Z,100325.84
2022-07-25T20:53:11.959Z,100324.69
2022-07-25T20:55:39.450Z,100321.56
2022-07-25T20:58:06.907Z,100320.31
2022-07-25T21:00:34.369Z,100331.09
2022-07-25T21:03:02.229Z,100330.22
2022-07-25T21:05:29.692Z,100333.81
2022-07-25T21:07:57.800Z,100334.69
2022-07-25T21:10:26.229Z,100390.53
2022-07-25T21:12:55.854Z,100442.16
2022-07-25T21:15:24.108Z,100469.41
2022-07-25T21:17:51.499Z,100454.50
2022-07-25T21:20:18.885Z,100436.72
2022-07-25T21:22:46.307Z,100430.13
2022-07-25T21:25:13.728Z,100429.09
2022-07-25T21:27:41.126Z,100423.78
2022-07-25T21:30:12.555Z,100434.19
2022-07-25T21:32:41.362Z,100421.28
2022-07-25T21:35:11.434Z,100418.47
2022-07-25T21:37:38.936Z,100422.53
2022-07-25T21:40:07.027Z,100417.06
2022-07-25T21:42:38.057Z,100411.78
2022-07-25T21:45:06.525Z,100402.13
2022-07-25T21:47:35.011Z,100407.34
2022-07-25T21:50:24.839Z,100403.16
2022-07-25T21:52:53.535Z,100390.84
2022-07-25T21:55:21.534Z,100383.81
2022-07-25T21:57:49.267Z,100392.41
2022-07-25T22:00:16.813Z,100402.72
2022-07-25T22:02:46.178Z,100407.09
2022-07-25T22:05:15.368Z,100427.81
2022-07-25T22:07:43.482Z,100439.50
2022-07-25T22:10:12.551Z,100438.13
2022-07-25T22:12:41.196Z,100446.25
2022-07-25T22:15:11.998Z,100452.16
2022-07-25T22:17:48.539Z,100440.78
2022-07-25T22:20:17.989Z,100445.63
2022-07-25T22:22:46.828Z,100474.97
2022-07-25T22:25:14.265Z,100468.25
2022-07-25T22:27:41.846Z,100461.69
2022-07-25T22:30:14.670Z,100434.41
2022-07-25T22:32:46.881Z,100384.41
2022-07-25T22:35:14.755Z,100316.72
2022-07-25T22:37:42.385Z,100270.56
2022-07-25T22:40:10.225Z,100232.81
2022-07-25T22:42:37.621Z,100193.94
2022-07-25T22:45:05.585Z,100182.41
2022-07-25T22:47:32.946Z,100132.22
2022-07-25T22:50:00.295Z,100149.97
2022-07-25T22:52:27.666Z,100184.28
2022-07-25T22:54:55.069Z,100187.34
2022-07-25T22:57:22.438Z,100183.47
2022-07-25T22:59:50.184Z,100175.72
2022-07-25T23:02:17.559Z,100178.97
2022-07-25T23:04:44.906Z,100181.63
2022-07-25T23:07:12.224Z,100199.13
2022-07-25T23:09:39.597Z,100201.03
2022-07-25T23:12:09.807Z,100211.03
2022-07-25T23:14:37.134Z,100225.19
2022-07-25T23:17:24.520Z,100242.78
2022-07-25T23:19:54.037Z,100251.97
2022-07-25T23:22:22.841Z,100249.22
2022-07-25T23:24:50.432Z,100240.66
2022-07-25T23:27:21.140Z,100230.38
2022-07-25T23:29:48.525Z,100229.44
2022-07-25T23:32:15.910Z,100236.13
2022-07-25T23:34:44.114Z,100232.63
2022-07-25T23:37:11.616Z,100235.78
2022-07-25T23:39:38.918Z,100237.97
2022-07-25T23:42:06.365Z,100236.22
2022-07-25T23:44:35.165Z,100240.09
2022-07-25T23:47:04.054Z,100228.84
2022-07-25T23:49:34.723Z,100230.84
2022-07-25T23:52:02.150Z,100237.38
2022-07-25T23:54:29.722Z,100244.00
2022-07-25T23:56:57.107Z,100252.63
2022-07-25T23:59:24.415Z,100247.19
